Time;durP1;ratioP1;P1;durP2;ratioP2;P2;SDS_P1;SDS_P2;PMS_P1;PMS_P2;Temp;Humidity;BMP_temperature;BMP_pressure;BME280_temperature;BME280_humidity;BME280_pressure;Samples;Min_cycle;Max_cycle;Signal;HPM_P1;HPM_P2
2024/01/02 00:01:27;;;;;;;;;;;12.40;51.50;;;12.49;55.03;99616.97;5034936;28;19969;-37
2024/01/02 00:03:55;;;;;;;;;;;12.40;51.60;;;12.47;54.75;99613.41;5035268;28;20415;-36
2024/01/02 00:06:23;;;;;;;;;;;12.30;51.60;;;12.42;55.19;99600.38;5035428;28;19972;-37
2024/01/02 00:08:51;;;;;;;;;;;12.30;51.60;;;12.43;55.41;99597.13;5034614;28;19925;-37
2024/01/02 00:11:19;;;;;;;;;;;12.30;51.70;;;12.42;55.26;99594.44;5035368;28;19925;-37
2024/01/02 00:13:47;;;;;;;;;;;12.30;51.70;;;12.40;54.49;99588.38;5034825;28;19958;-37
2024/01/02 00:16:17;;;;;;;;;;;12.30;51.70;;;12.40;54.69;99588.38;5034735;28;19929;-35
2024/01/02 00:18:45;;;;;;;;;;;12.30;51.70;;;12.38;54.78;99582.31;5034504;28;19932;-36
2024/01/02 00:21:13;;;;;;;;;;;12.30;51.80;;;12.38;54.64;99572.25;5034889;28;19932;-36
2024/01/02 00:23:41;;;;;;;;;;;12.30;51.80;;;12.39;55.55;99558.97;5034944;28;19979;-35
2024/01/02 00:26:09;;;;;;;;;;;12.20;51.70;;;12.40;54.99;99540.63;5034783;28;19925;-37
2024/01/02 00:28:37;;;;;;;;;;;12.20;51.70;;;12.40;54.84;99540.63;5034556;28;20407;-37
2024/01/02 00:31:05;;;;;;;;;;;12.20;51.70;;;12.43;54.68;99540.97;5034467;28;19929;-37
2024/01/02 00:33:34;;;;;;;;;;;12.30;51.90;;;12.43;54.49;99530.91;5034735;28;19925;-37
2024/01/02 00:36:03;;;;;;;;;;;12.30;51.80;;;12.40;54.93;99518.91;5034481;28;19968;-37
2024/01/02 00:38:32;;;;;;;;;;;12.30;51.80;;;12.48;55.44;99532.28;5034055;28;19989;-35
2024/01/02 00:41:00;;;;;;;;;;;12.30;51.80;;;12.51;54.55;99517.53;5034094;28;19925;-36
2024/01/02 00:43:28;;;;;;;;;;;12.30;51.70;;;12.46;54.20;99508.63;5034032;28;19925;-36
2024/01/02 00:45:56;;;;;;;;;;;12.30;51.70;;;12.59;54.79;99505.75;5034356;28;20008;-35
2024/01/02 00:48:24;;;;;;;;;;;12.30;51.70;;;12.62;54.16;99509.50;5034072;28;20005;-37
2024/01/02 00:50:54;;;;;;;;;;;12.30;51.70;;;12.65;53.97;99504.75;5026915;28;19929;-35
2024/01/02 00:53:22;;;;;;;;;;;12.40;51.70;;;12.66;53.83;99491.47;5034305;28;20019;-37
2024/01/02 00:55:49;;;;;;;;;;;12.40;51.70;;;12.68;54.88;99484.09;5034816;28;19982;-37
2024/01/02 00:58:17;;;;;;;;;;;12.40;51.70;;;12.55;54.92;99461.84;5034380;28;20016;-37
2024/01/02 01:00:47;;;;;;;;;;;12.40;51.60;;;12.66;54.75;99466.34;5034568;28;19925;-36
2024/01/02 01:03:15;;;;;;;;;;;12.40;51.60;;;12.67;53.82;99463.09;5033848;28;20373;-37
2024/01/02 01:05:43;;;;;;;;;;;12.40;51.60;;;12.70;54.06;99458.41;5034149;28;19925;-35
2024/01/02 01:08:13;;;;;;;;;;;12.40;51.60;;;12.65;54.19;99449.47;5033688;28;20019;-37
2024/01/02 01:10:40;;;;;;;;;;;12.40;51.60;;;12.66;54.31;99441.22;5034284;28;19929;-37
2024/01/02 01:13:08;;;;;;;;;;;12.40;51.60;;;12.63;54.44;99424.94;5033987;28;20028;-37
2024/01/02 01:15:38;;;;;;;;;;;12.50;51.70;;;12.67;54.60;99430.44;5033954;28;19926;-37
2024/01/02 01:18:06;;;;;;;;;;;12.50;51.70;;;12.69;54.83;99431.50;5033088;28;20339;-37
2024/01/02 01:20:34;;;;;;;;;;;12.50;51.60;;;12.70;53.91;99415.69;5033887;28;19925;-36
2024/01/02 01:23:02;;;;;;;;;;;12.50;51.60;;;12.72;54.13;99411.69;5033134;28;19925;-37
2024/01/02 01:25:31;;;;;;;;;;;12.50;51.60;;;12.70;53.63;99403.13;5033543;28;19956;-36
2024/01/02 01:27:59;;;;;;;;;;;12.50;51.50;;;12.66;54.24;99398.50;5032365;28;19925;-36
2024/01/02 01:30:27;;;;;;;;;;;12.50;51.50;;;12.68;54.58;99399.56;5033830;28;19947;-36
2024/01/02 01:32:55;;;;;;;;;;;12.50;51.50;;;12.64;54.30;99392.44;5033579;28;20312;-35
2024/01/02 01:35:23;;;;;;;;;;;12.50;51.50;;;12.66;54.80;99395.09;5033426;28;19929;-35
2024/01/02 01:37:51;;;;;;;;;;;12.50;51.50;;;12.66;54.42;99385.94;5033225;28;20508;-36
2024/01/02 01:40:19;;;;;;;;;;;12.50;51.50;;;12.62;53.86;99363.75;5033513;28;19925;-36
2024/01/02 01:42:48;;;;;;;;;;;12.50;51.50;;;12.64;55.12;99364.81;5033464;28;19961;-37
2024/01/02 01:45:17;;;;;;;;;;;12.50;51.50;;;12.61;54.33;99356.94;5033630;28;19925;-37
2024/01/02 01:47:45;;;;;;;;;;;12.50;51.50;;;12.57;54.75;99346.44;5033138;28;19925;-36
2024/01/02 01:50:13;;;;;;;;;;;12.50;51.50;;;12.57;54.85;99334.78;5025790;28;19925;-37
2024/01/02 01:52:41;;;;;;;;;;;12.50;51.60;;;12.56;54.34;99329.59;5033703;28;19972;-35
2024/01/02 01:55:10;;;;;;;;;;;12.40;51.60;;;12.53;54.66;99317.59;5033502;28;19983;-35
2024/01/02 01:57:38;;;;;;;;;;;12.40;52.30;;;12.50;54.35;99302.22;5033458;28;20008;-37
2024/01/02 02:00:08;;;;;;;;;;;12.40;51.70;;;12.50;54.72;99292.16;5032975;28;20482;-36
2024/01/02 02:02:36;;;;;;;;;;;12.40;51.80;;;12.48;54.72;99283.59;5033279;28;20381;-37
2024/01/02 02:05:04;;;;;;;;;;;12.30;51.70;;;12.47;54.85;99276.78;5033438;28;19933;-36
2024/01/02 02:07:32;;;;;;;;;;;12.30;51.80;;;12.46;54.96;99264.94;5033710;28;19929;-36
2024/01/02 02:10:00;;;;;;;;;;;12.30;51.90;;;12.44;54.68;99262.31;5032877;28;19985;-37
2024/01/02 02:12:28;;;;;;;;;;;12.30;51.90;;;12.44;54.75;99261.41;5033117;28;19925;-36
2024/01/02 02:14:56;;;;;;;;;;;12.30;51.90;;;12.41;55.66;99251.03;5032768;28;19929;-36
2024/01/02 02:17:40;;;;;;;;;;;12.30;52.00;;;12.40;54.64;99249.25;5033224;28;20024;-37
2024/01/02 02:20:09;;;;;;;;;;;12.30;52.00;;;12.37;55.82;99238.94;5033095;28;19929;-37
2024/01/02 02:22:37;;;;;;;;;;;12.30;52.10;;;12.34;55.37;99223.53;5032984;28;19925;-36
2024/01/02 02:25:08;;;;;;;;;;;12.30;52.10;;;12.40;55.48;99229.16;5032933;28;19925;-36
2024/01/02 02:27:36;;;;;;;;;;;12.30;52.10;;;12.41;55.11;99230.94;5032717;28;19948;-36
2024/01/02 02:30:05;;;;;;;;;;;12.30;52.10;;;12.37;55.04;99218.84;5032275;28;19929;-35
2024/01/02 02:32:33;;;;;;;;;;;12.30;52.10;;;12.43;55.35;99216.94;5032975;28;19925;-36
2024/01/02 02:35:01;;;;;;;;;;;12.30;52.10;;;12.44;55.46;99211.19;5032755;28;20407;-37
2024/01/02 02:37:29;;;;;;;;;;;12.30;52.00;;;12.48;55.12;99208.22;5033057;28;19925;-37
2024/01/02 02:39:57;;;;;;;;;;;12.30;52.00;;;12.49;55.19;99220.06;5034162;28;19925;-37
2024/01/02 02:42:26;;;;;;;;;;;12.30;52.00;;;12.53;54.58;99191.97;5036519;28;20455;-37
2024/01/02 02:44:54;;;;;;;;;;;12.30;52.00;;;12.54;54.02;99197.88;5036535;28;20375;-37
2024/01/02 02:47:22;;;;;;;;;;;12.30;51.90;;;12.59;54.42;99186.66;5036847;28;20020;-37
2024/01/02 02:49:51;;;;;;;;;;;12.30;51.90;;;12.58;55.01;99175.75;5027336;28;19925;-38
2024/01/02 02:52:20;;;;;;;;;;;12.40;52.00;;;12.63;53.90;99172.06;5036505;28;19931;-36
2024/01/02 02:54:48;;;;;;;;;;;12.40;52.00;;;12.62;54.80;99162.75;5036122;28;19925;-36
2024/01/02 02:57:16;;;;;;;;;;;12.40;51.90;;;12.66;54.81;99149.72;5028446;28;20016;-36
2024/01/02 02:59:45;;;;;;;;;;;12.40;51.90;;;12.60;54.66;99124.00;5036145;28;20011;-36
2024/01/02 03:02:13;;;;;;;;;;;12.40;51.90;;;12.67;55.27;99116.34;5036678;28;20365;-36
2024/01/02 03:04:41;;;;;;;;;;;12.40;51.90;;;12.69;54.46;99127.44;5035862;28;19925;-34
2024/01/02 03:07:09;;;;;;;;;;;12.40;51.80;;;12.68;54.91;99113.09;5036024;28;19929;-35
2024/01/02 03:09:37;;;;;;;;;;;12.50;51.80;;;12.70;55.16;99111.63;5036111;28;20023;-35
2024/01/02 03:12:06;;;;;;;;;;;12.50;51.80;;;12.70;54.65;99111.63;5035870;28;20373;-36
2024/01/02 03:14:34;;;;;;;;;;;12.50;51.70;;;12.73;54.92;99111.91;5036247;28;19928;-36
2024/01/02 03:17:04;;;;;;;;;;;12.50;51.70;;;12.72;54.25;99105.09;5035725;28;19925;-36
2024/01/02 03:19:32;;;;;;;;;;;12.50;51.70;;;12.71;54.72;99098.28;5035510;28;19979;-36
2024/01/02 03:22:00;;;;;;;;;;;12.50;51.70;;;12.70;54.27;99086.50;5035806;28;19925;-37
2024/01/02 03:24:28;;;;;;;;;;;12.50;51.70;;;12.68;54.14;99067.84;5035927;28;19925;-36
2024/01/02 03:26:56;;;;;;;;;;;12.50;51.70;;;12.70;55.15;99065.50;5036110;28;19925;-36
2024/01/02 03:29:26;;;;;;;;;;;12.50;51.70;;;12.66;54.94;99051.72;5036532;28;19988;-36
2024/01/02 03:31:54;;;;;;;;;;;12.50;51.70;;;12.66;54.64;99044.19;5035989;28;19929;-36
2024/01/02 03:34:24;;;;;;;;;;;12.50;51.80;;;12.64;54.04;99035.66;5036152;28;19925;-36
2024/01/02 03:36:52;;;;;;;;;;;12.50;51.80;;;12.62;55.24;99037.13;5036314;28;20008;-34
2024/01/02 03:39:19;;;;;;;;;;;12.50;51.80;;;12.61;54.61;99025.28;5040910;28;20019;-36
2024/01/02 03:41:47;;;;;;;;;;;12.50;51.80;;;12.61;55.16;99021.88;5042651;28;19926;-36
2024/01/02 03:44:15;;;;;;;;;;;12.50;51.80;;;12.59;54.91;99016.72;5035843;28;20384;-37
2024/01/02 03:46:43;;;;;;;;;;;12.40;51.80;;;12.58;55.62;99004.91;5035627;28;20080;-37
2024/01/02 03:49:11;;;;;;;;;;;12.40;51.80;;;12.56;54.86;98981.25;5034180;28;19979;-37
2024/01/02 03:51:40;;;;;;;;;;;12.40;51.90;;;12.54;55.58;98972.69;5034254;28;20455;-36
2024/01/02 03:54:08;;;;;;;;;;;12.40;51.90;;;12.51;54.94;98964.88;5035127;28;20428;-36
2024/01/02 03:56:36;;;;;;;;;;;12.40;52.00;;;12.51;54.25;98947.28;5034699;28;20380;-37
2024/01/02 03:59:04;;;;;;;;;;;12.40;52.00;;;12.52;55.35;98949.03;5034002;28;19929;-36
2024/01/02 04:01:32;;;;;;;;;;;12.30;52.00;;;12.47;55.13;98937.66;5034539;28;19929;-37
2024/01/02 04:04:00;;;;;;;;;;;12.30;52.00;;;12.48;55.13;98936.94;5034159;28;19925;-36
2024/01/02 04:06:32;;;;;;;;;;;12.30;52.00;;;12.42;54.89;98927.19;5033991;28;20373;-36
2024/01/02 04:09:01;;;;;;;;;;;12.30;52.10;;;12.44;55.05;98929.88;5034486;28;19932;-36
2024/01/02 04:11:29;;;;;;;;;;;12.30;52.10;;;12.43;55.12;98923.06;5034061;28;20012;-36
2024/01/02 04:13:57;;;;;;;;;;;12.30;52.10;;;12.43;55.12;98915.53;5034235;28;19925;-36
2024/01/02 04:16:25;;;;;;;;;;;12.30;52.10;;;12.43;54.91;98910.50;5034280;28;19929;-36
2024/01/02 04:18:53;;;;;;;;;;;12.20;52.00;;;12.43;55.48;98908.00;5033685;28;19925;-36
2024/01/02 04:21:21;;;;;;;;;;;12.30;52.20;;;12.41;54.88;98889.38;5026741;28;19925;-36
2024/01/02 04:23:49;;;;;;;;;;;12.30;52.20;;;12.40;55.77;98890.09;5034940;28;19969;-37
2024/01/02 04:26:19;;;;;;;;;;;12.30;52.20;;;12.42;54.68;98882.00;5036809;28;19926;-37
2024/01/02 04:28:47;;;;;;;;;;;12.30;52.20;;;12.41;55.72;98879.31;5037905;28;19925;-37
2024/01/02 04:31:15;;;;;;;;;;;12.20;52.10;;;12.44;55.06;98889.69;5033834;28;19979;-36
2024/01/02 04:33:42;;;;;;;;;;;12.20;52.10;;;12.44;55.30;98874.59;5033947;28;19976;-37
2024/01/02 04:36:11;;;;;;;;;;;12.30;52.20;;;12.43;55.36;98857.75;5033580;28;20424;-36
2024/01/02 04:38:39;;;;;;;;;;;12.30;52.10;;;12.46;55.20;98858.91;5033198;28;20021;-37
2024/01/02 04:41:07;;;;;;;;;;;12.30;52.10;;;12.48;55.19;98856.56;5033798;28;19932;-36
2024/01/02 04:43:37;;;;;;;;;;;12.30;52.10;;;12.51;54.38;98844.31;5033643;28;19925;-36
2024/01/02 04:46:05;;;;;;;;;;;12.30;52.10;;;12.51;55.06;98841.78;5033429;28;19967;-35
2024/01/02 04:48:33;;;;;;;;;;;12.30;52.00;;;12.52;54.63;98833.47;5024908;28;19965;-35
2024/01/02 04:51:01;;;;;;;;;;;12.30;52.00;;;12.56;54.55;98829.66;5087858;22;20399;-35
2024/01/02 04:53:28;;;;;;;;;;;12.30;51.90;;;12.57;54.62;98822.25;5093888;28;19990;-37
2024/01/02 04:55:56;;;;;;;;;;;12.30;52.00;;;12.53;54.30;98810.13;5093526;28;20221;-36
2024/01/02 04:58:24;;;;;;;;;;;12.40;52.00;;;12.58;55.01;98806.44;5092756;28;19971;-36
2024/01/02 05:00:54;;;;;;;;;;;12.40;52.00;;;12.60;54.23;98792.38;5093305;28;19928;-34
2024/01/02 05:03:23;;;;;;;;;;;12.40;52.00;;;12.61;54.55;98779.09;5095345;28;19928;-37
2024/01/02 05:05:51;;;;;;;;;;;12.40;51.90;;;12.61;54.56;98774.06;5101272;28;19924;-36
2024/01/02 05:08:20;;;;;;;;;;;12.40;51.90;;;12.60;54.53;98756.31;5097394;28;20018;-36
2024/01/02 05:10:48;;;;;;;;;;;12.40;51.90;;;12.62;54.30;98745.69;5094416;28;19932;-36
2024/01/02 05:13:16;;;;;;;;;;;12.40;51.90;;;12.62;54.74;98725.59;5093991;28;20015;-36
2024/01/02 05:15:44;;;;;;;;;;;12.40;51.90;;;12.63;54.67;98714.81;5093688;28;19924;-36
2024/01/02 05:18:13;;;;;;;;;;;12.40;51.90;;;12.62;54.78;98719.69;5092493;28;20125;-36
2024/01/02 05:20:42;;;;;;;;;;;12.40;51.80;;;12.60;55.43;98701.06;5094021;28;19955;-36
2024/01/02 05:23:10;;;;;;;;;;;12.40;51.80;;;12.60;54.97;98681.84;5093825;28;20390;-36
2024/01/02 05:25:43;;;;;;;;;;;12.40;51.80;;;12.60;54.79;98679.34;5094105;28;19928;-36
2024/01/02 05:28:11;;;;;;;;;;;12.40;51.80;;;12.59;54.59;98665.00;5092976;28;20023;-36
2024/01/02 05:30:39;;;;;;;;;;;12.40;51.90;;;12.59;55.33;98656.59;5092776;28;19924;-36
2024/01/02 05:33:07;;;;;;;;;;;12.40;51.90;;;12.56;55.27;98649.66;5092881;28;19951;-36
2024/01/02 05:35:36;;;;;;;;;;;12.40;51.90;;;12.52;54.67;98637.56;5092915;28;19928;-37
2024/01/02 05:38:05;;;;;;;;;;;12.40;51.90;;;12.51;55.18;98620.75;5091763;28;19924;-36
2024/01/02 05:40:34;;;;;;;;;;;12.30;51.90;;;12.49;54.61;98612.19;5092311;28;19940;-34
2024/01/02 05:43:01;;;;;;;;;;;12.30;51.90;;;12.49;55.42;98607.16;5092485;28;19963;-34
2024/01/02 05:45:29;;;;;;;;;;;12.30;51.90;;;12.49;55.14;98612.19;5092510;28;20287;-36
2024/01/02 05:47:57;;;;;;;;;;;12.30;52.00;;;12.48;54.95;98615.44;5091681;28;19930;-37
2024/01/02 05:50:25;;;;;;;;;;;12.30;52.00;;;12.46;55.17;98601.84;5084385;28;19955;-37
2024/01/02 05:52:55;;;;;;;;;;;12.30;52.00;;;12.46;55.16;98606.88;5092068;28;20402;-36
2024/01/02 05:55:22;;;;;;;;;;;12.30;52.00;;;12.44;54.81;98598.34;5091786;28;19924;-36
2024/01/02 05:57:50;;;;;;;;;;;12.30;52.10;;;12.43;55.67;98607.50;5091066;28;20014;-37
2024/01/02 06:00:19;;;;;;;;;;;12.30;52.00;;;12.42;55.19;98592.28;5091826;28;20007;-37
2024/01/02 06:02:47;;;;;;;;;;;12.30;52.00;;;12.43;55.45;98601.59;5091944;28;20011;-37
2024/01/02 06:05:15;;;;;;;;;;;12.30;52.00;;;12.42;54.61;98582.25;5091687;28;19924;-36
2024/01/02 06:07:43;;;;;;;;;;;12.20;52.00;;;12.41;54.45;98578.84;5091254;28;20383;-37
2024/01/02 06:10:12;;;;;;;;;;;12.30;52.00;;;12.40;54.83;98579.59;5091740;28;20002;-36
2024/01/02 06:12:40;;;;;;;;;;;12.30;52.10;;;12.39;54.66;98579.47;5091983;28;19924;-37
2024/01/02 06:15:09;;;;;;;;;;;12.20;52.00;;;12.39;55.62;98574.44;5095779;28;20364;-37
2024/01/02 06:17:37;;;;;;;;;;;12.20;52.00;;;12.39;55.29;98569.44;5096637;28;20384;-36
2024/01/02 06:20:08;;;;;;;;;;;12.20;52.00;;;12.38;54.67;98557.63;5095827;28;20362;-36
2024/01/02 06:22:37;;;;;;;;;;;12.20;52.00;;;12.40;54.83;98561.13;5095866;28;20194;-36
2024/01/02 06:25:08;;;;;;;;;;;12.20;52.10;;;12.39;54.45;98544.31;5087154;28;20023;-37
2024/01/02 06:27:37;;;;;;;;;;;12.20;52.00;;;12.40;54.95;98541.03;5096036;28;19998;-36
2024/01/02 06:30:07;;;;;;;;;;;12.20;52.10;;;12.41;55.14;98540.28;5094710;28;19928;-37
2024/01/02 06:32:35;;;;;;;;;;;12.30;52.20;;;12.44;55.30;98533.03;5095419;28;19971;-37
2024/01/02 06:35:03;;;;;;;;;;;12.30;52.20;;;12.44;54.61;98528.03;5095280;28;20064;-37
2024/01/02 06:37:31;;;;;;;;;;;12.30;52.20;;;12.46;54.35;98512.31;5095472;28;19928;-37
2024/01/02 06:39:59;;;;;;;;;;;12.30;52.10;;;12.47;54.50;98510.69;5095070;28;19924;-37
2024/01/02 06:42:27;;;;;;;;;;;12.30;52.10;;;12.47;54.90;98500.66;5087107;28;20014;-37
2024/01/02 06:44:57;;;;;;;;;;;12.30;52.00;;;12.50;54.84;98493.41;5095043;28;19978;-37
2024/01/02 06:47:25;;;;;;;;;;;12.30;52.00;;;12.51;54.81;98505.22;5094943;28;20423;-37
2024/01/02 06:49:53;;;;;;;;;;;12.40;52.10;;;12.51;55.43;98487.63;5094235;28;20326;-37
2024/01/02 06:52:21;;;;;;;;;;;12.30;52.00;;;12.53;55.43;98483.59;5093985;28;20648;-37
2024/01/02 06:54:48;;;;;;;;;;;12.40;52.10;;;12.56;54.78;98493.06;5095082;28;19959;-37
2024/01/02 06:57:16;;;;;;;;;;;12.40;52.10;;;12.57;54.83;98488.16;5094996;28;19924;-37
2024/01/02 06:59:45;;;;;;;;;;;12.40;52.00;;;12.59;54.48;98488.28;5094342;28;20392;-37
2024/01/02 07:02:14;;;;;;;;;;;12.40;52.00;;;12.60;54.88;98483.41;5094564;28;19924;-36
2024/01/02 07:04:42;;;;;;;;;;;12.40;52.10;;;12.59;55.60;98484.13;5095075;28;19928;-37
2024/01/02 07:07:10;;;;;;;;;;;12.40;52.00;;;12.62;54.50;98484.41;5094699;28;20043;-37
2024/01/02 07:09:38;;;;;;;;;;;12.40;52.00;;;12.62;54.64;98484.41;5094112;28;20023;-37
2024/01/02 07:12:06;;;;;;;;;;;12.40;52.00;;;12.67;54.78;98473.13;5094750;28;19924;-37
2024/01/02 07:14:37;;;;;;;;;;;12.40;52.00;;;12.65;54.75;98484.66;5094585;28;19927;-37
2024/01/02 07:17:05;;;;;;;;;;;12.40;52.10;;;12.62;55.18;98489.44;5094356;28;19935;-36
2024/01/02 07:19:34;;;;;;;;;;;12.40;52.10;;;12.62;54.90;98486.03;5094141;28;19950;-36
2024/01/02 07:22:02;;;;;;;;;;;12.40;52.20;;;12.63;55.24;98490.31;5094412;28;20458;-36
2024/01/02 07:24:31;;;;;;;;;;;12.40;52.20;;;12.61;55.39;98472.59;5085269;28;20443;-36
2024/01/02 07:26:59;;;;;;;;;;;12.40;52.20;;;12.61;55.55;98461.66;5094125;28;20350;-36
2024/01/02 07:29:26;;;;;;;;;;;12.40;52.30;;;12.60;55.30;98465.81;5093375;28;20015;-36
2024/01/02 07:31:54;;;;;;;;;;;12.40;52.40;;;12.59;55.76;98458.13;5094534;28;19924;-36
2024/01/02 07:34:23;;;;;;;;;;;12.40;52.40;;;12.56;55.59;98478.88;5093980;28;20414;-36
2024/01/02 07:36:53;;;;;;;;;;;12.40;52.50;;;12.55;55.38;98477.09;5094389;28;19930;-36
2024/01/02 07:39:21;;;;;;;;;;;12.40;52.60;;;12.54;55.74;98487.88;5093332;28;19930;-36
2024/01/02 07:41:48;;;;;;;;;;;12.40;52.70;;;12.52;55.77;98489.38;5094457;28;19994;-36
2024/01/02 07:44:16;;;;;;;;;;;12.40;52.80;;;12.51;55.67;98495.16;5093842;28;20019;-36
2024/01/02 07:46:44;;;;;;;;;;;12.30;52.80;;;12.49;56.20;98492.50;5094233;28;19951;-36
2024/01/02 07:49:12;;;;;;;;;;;12.30;52.90;;;12.48;56.48;98493.25;5093653;28;19978;-36
2024/01/02 07:51:40;;;;;;;;;;;12.30;53.00;;;12.48;56.58;98489.88;5092536;28;20011;-36
2024/01/02 07:54:10;;;;;;;;;;;12.30;53.00;;;12.47;55.36;98478.94;5093926;28;19936;-36
2024/01/02 07:56:37;;;;;;;;;;;12.30;53.00;;;12.46;56.67;98491.34;5093755;28;19928;-36
2024/01/02 07:59:05;;;;;;;;;;;12.30;53.00;;;12.45;56.56;98492.13;5093447;28;20023;-36
2024/01/02 08:01:33;;;;;;;;;;;12.30;53.20;;;12.44;55.84;98493.75;5085799;28;20481;-36
2024/01/02 08:04:01;;;;;;;;;;;12.30;53.20;;;12.42;56.41;98499.38;5093897;28;20007;-36
2024/01/02 08:06:30;;;;;;;;;;;12.30;53.30;;;12.43;56.72;98491.09;5093569;28;19924;-36
2024/01/02 08:08:58;;;;;;;;;;;12.30;53.30;;;12.43;56.67;98491.09;5092861;28;20407;-36
2024/01/02 08:11:27;;;;;;;;;;;12.30;53.40;;;12.42;56.58;98495.22;5094651;28;19931;-36
2024/01/02 08:13:56;;;;;;;;;;;12.30;53.40;;;12.42;55.90;98499.38;5095302;28;19932;-36
2024/01/02 08:16:24;;;;;;;;;;;12.30;53.40;;;12.42;55.91;98504.41;5093757;28;20159;-36
2024/01/02 08:18:52;;;;;;;;;;;12.20;53.40;;;12.40;56.42;98510.91;5092908;28;19986;-36
2024/01/02 08:21:20;;;;;;;;;;;12.20;53.40;;;12.39;56.47;98494.94;5093202;28;19924;-37
2024/01/02 08:23:48;;;;;;;;;;;12.20;53.40;;;12.40;56.89;98500.84;5093212;28;20299;-36
2024/01/02 08:26:16;;;;;;;;;;;12.20;53.40;;;12.39;56.32;98491.59;5092967;28;20504;-36
2024/01/02 08:28:45;;;;;;;;;;;12.20;53.50;;;12.41;56.86;98497.59;5092710;28;19924;-36
2024/01/02 08:31:13;;;;;;;;;;;12.20;53.50;;;12.42;56.04;98504.41;5093010;28;19971;-36
2024/01/02 08:33:41;;;;;;;;;;;12.30;53.50;;;12.41;57.06;98507.66;5093128;28;19924;-36
2024/01/02 08:36:11;;;;;;;;;;;12.30;53.60;;;12.42;56.78;98495.22;5092498;28;19924;-36
2024/01/02 08:38:40;;;;;;;;;;;12.30;53.70;;;12.43;56.67;98502.03;5092340;28;20402;-36
2024/01/02 08:41:10;;;;;;;;;;;12.30;53.60;;;12.44;56.92;98507.94;5092090;28;20417;-36
2024/01/02 08:43:38;;;;;;;;;;;12.30;53.60;;;12.46;56.42;98506.41;5093053;28;19935;-36
2024/01/02 08:46:07;;;;;;;;;;;12.30;53.70;;;12.48;56.40;98510.84;5092653;28;20302;-36
2024/01/02 08:48:35;;;;;;;;;;;12.30;53.60;;;12.51;56.70;98519.41;5092407;28;20358;-37
2024/01/02 08:51:04;;;;;;;;;;;12.30;53.60;;;12.52;56.75;98517.00;5090697;28;20401;-36
2024/01/02 08:53:32;;;;;;;;;;;12.30;53.50;;;12.52;56.86;98517.00;5092783;28;19924;-36
2024/01/02 08:56:00;;;;;;;;;;;12.30;53.50;;;12.55;56.42;98527.34;5092639;28;20295;-37
2024/01/02 08:58:28;;;;;;;;;;;12.30;53.50;;;12.56;56.62;98516.53;5091779;28;19924;-37
2024/01/02 09:00:56;;;;;;;;;;;12.30;53.50;;;12.58;56.55;98532.63;5092607;28;20010;-37
2024/01/02 09:03:27;;;;;;;;;;;12.40;53.50;;;12.60;56.54;98531.13;5092650;28;19989;-36
2024/01/02 09:05:56;;;;;;;;;;;12.40;53.50;;;12.62;56.27;98539.69;5092160;28;19935;-37
2024/01/02 09:08:24;;;;;;;;;;;12.40;53.50;;;12.63;56.47;98540.56;5091851;28;20349;-37
2024/01/02 09:10:52;;;;;;;;;;;12.40;53.50;;;12.66;56.41;98541.72;5092516;28;19924;-37
2024/01/02 09:13:20;;;;;;;;;;;12.40;53.50;;;12.64;56.59;98548.25;5092185;28;19924;-37
2024/01/02 09:15:48;;;;;;;;;;;12.50;53.50;;;12.69;56.59;98547.00;5092127;28;20377;-35
2024/01/02 09:18:16;;;;;;;;;;;12.50;53.40;;;12.70;55.48;98543.75;5091409;28;19928;-36
2024/01/02 09:20:47;;;;;;;;;;;12.50;53.40;;;12.67;55.70;98533.44;5092359;28;20014;-37
2024/01/02 09:23:15;;;;;;;;;;;12.50;53.40;;;12.73;56.35;98540.63;5092109;28;20338;-36
2024/01/02 09:25:45;;;;;;;;;;;12.50;53.40;;;12.77;56.13;98553.56;5092381;28;19924;-36
2024/01/02 09:28:13;;;;;;;;;;;12.50;53.30;;;12.77;55.70;98556.09;5091226;28;19971;-36
2024/01/02 09:30:47;;;;;;;;;;;12.50;53.30;;;12.77;56.29;98558.59;5092083;28;19925;-36
2024/01/02 09:33:17;;;;;;;;;;;12.60;53.30;;;12.77;56.34;98566.13;5092172;28;19974;-36
2024/01/02 09:35:46;;;;;;;;;;;12.50;53.20;;;12.78;56.24;98557.84;5092096;28;20135;-36
2024/01/02 09:38:15;;;;;;;;;;;12.60;53.20;;;12.78;56.52;98562.88;5091214;28;19928;-37
2024/01/02 09:40:53;;;;;;;;;;;12.60;53.20;;;12.77;55.43;98571.16;5091777;28;19930;-36
2024/01/02 09:43:23;;;;;;;;;;;12.60;53.20;;;12.77;55.52;98571.16;5091960;28;20077;-36
2024/01/02 09:45:57;;;;;;;;;;;12.60;53.20;;;12.76;56.34;98569.41;5091818;28;20431;-36
2024/01/02 09:48:46;;;;;;;;;;;12.60;53.30;;;12.75;56.09;98567.66;5090497;28;20397;-36
2024/01/02 09:51:19;;;;;;;;;;;12.60;53.30;;;12.73;56.03;98576.69;5091360;28;19963;-37
2024/01/02 09:54:05;;;;;;;;;;;12.60;53.40;;;12.73;56.32;98565.75;5091920;28;19924;-36
2024/01/02 09:56:37;;;;;;;;;;;12.60;53.30;;;12.71;56.48;98565.59;5091485;28;20026;-36
2024/01/02 09:59:08;;;;;;;;;;;12.60;53.30;;;12.70;56.11;98568.88;5091066;28;19924;-36
2024/01/02 10:01:41;;;;;;;;;;;12.60;53.30;;;12.71;56.11;98578.16;5091445;28;20021;-36
2024/01/02 10:04:30;;;;;;;;;;;12.60;53.30;;;12.68;56.47;98567.84;5091752;28;19924;-36
2024/01/02 10:07:27;;;;;;;;;;;12.50;53.20;;;12.68;56.06;98565.34;5086129;28;19928;-37
2024/01/02 10:10:03;;;;;;;;;;;12.50;53.30;;;12.66;56.13;98566.84;5090632;28;19924;-36
2024/01/02 10:12:35;;;;;;;;;;;12.50;53.40;;;12.64;56.50;98563.31;5091476;28;19924;-36
2024/01/02 10:15:10;;;;;;;;;;;12.50;53.30;;;12.60;56.35;98551.22;5091709;28;19924;-36
2024/01/02 10:17:43;;;;;;;;;;;12.50;53.40;;;12.61;56.44;98555.50;5091504;28;19982;-36
2024/01/02 10:20:14;;;;;;;;;;;12.50;53.40;;;12.58;57.07;98547.72;5091511;28;19930;-37
2024/01/02 10:22:48;;;;;;;;;;;12.50;53.60;;;12.60;56.98;98556.25;5084215;28;20350;-36
2024/01/02 10:25:17;;;;;;;;;;;12.40;53.60;;;12.58;55.96;98547.72;5091497;28;20023;-36
2024/01/02 10:27:49;;;;;;;;;;;12.40;53.60;;;12.58;56.26;98551.84;5090892;28;19923;-37
2024/01/02 10:30:19;;;;;;;;;;;12.40;53.80;;;12.56;57.55;98549.19;5091778;28;19924;-36
2024/01/02 10:32:50;;;;;;;;;;;12.40;53.90;;;12.43;57.12;98521.22;5091455;28;20021;-36
2024/01/02 10:35:20;;;;;;;;;;;12.40;54.00;;;12.57;56.86;98545.94;5091231;28;20383;-36
2024/01/02 10:37:59;;;;;;;;;;;12.40;53.90;;;12.55;57.20;98539.88;5091111;28;19978;-37
2024/01/02 10:40:27;;;;;;;;;;;12.40;54.20;;;12.55;57.70;98537.38;5091355;28;19935;-35
2024/01/02 10:43:03;;;;;;;;;;;12.40;54.20;;;12.57;57.40;98535.00;5091444;28;19924;-35
2024/01/02 10:45:34;;;;;;;;;;;12.40;54.20;;;12.48;56.92;98514.97;5091076;28;19924;-35
2024/01/02 10:48:15;;;;;;;;;;;12.40;54.10;;;12.57;57.44;98515.81;5090785;28;20019;-35
2024/01/02 10:50:48;;;;;;;;;;;12.40;54.10;;;12.59;57.43;98521.81;5091445;28;19924;-36
2024/01/02 10:53:27;;;;;;;;;;;12.40;54.10;;;12.59;56.70;98523.44;5091101;28;19955;-35
2024/01/02 10:55:57;;;;;;;;;;;12.40;54.20;;;12.58;57.81;98517.56;5091111;28;19928;-35
2024/01/02 10:58:27;;;;;;;;;;;12.40;54.20;;;12.61;57.74;98516.94;5090665;28;20371;-35
2024/01/02 11:01:00;;;;;;;;;;;12.40;54.10;;;12.61;56.67;98512.78;5093240;28;19928;-35
2024/01/02 11:03:28;;;;;;;;;;;12.40;54.10;;;12.59;57.27;98513.41;5094825;28;19926;-36
2024/01/02 11:06:01;;;;;;;;;;;12.40;54.10;;;12.63;56.93;98508.78;5094822;28;20021;-36
2024/01/02 11:08:32;;;;;;;;;;;12.40;54.10;;;12.65;56.81;98524.88;5094149;28;19924;-35
2024/01/02 11:11:02;;;;;;;;;;;12.40;54.10;;;12.68;57.03;98519.25;5094815;28;19947;-35
2024/01/02 11:13:31;;;;;;;;;;;12.50;54.00;;;12.70;57.04;98517.75;5094770;28;19947;-35
2024/01/02 11:16:01;;;;;;;;;;;12.50;54.00;;;12.61;57.21;98512.78;5094790;28;20030;-35
2024/01/02 11:18:31;;;;;;;;;;;12.50;53.90;;;12.71;56.36;98527.91;5093777;28;20003;-35
2024/01/02 11:21:01;;;;;;;;;;;12.50;53.90;;;12.75;56.35;98527.44;5094872;28;19924;-35
2024/01/02 11:23:32;;;;;;;;;;;12.50;53.90;;;12.74;57.19;98525.69;5094487;28;19924;-35
2024/01/02 11:26:02;;;;;;;;;;;12.50;53.90;;;12.77;57.45;98525.94;5094835;28;20015;-36